AirNav   ATP
 
 795 users online  

7U8 Richey Airport
Richey, Montana, USA

GOING TO RICHEY?


FAA INFORMATION EFFECTIVE 24 MAY 2018

Location

FAA Identifier: 7U8
Lat/Long: 47-37-35.1000N / 105-04-46.5000W
47-37.585000N / 105-04.775000W
47.6264167 / -105.0795833
(estimated)
Elevation: 2494 ft. / 760.2 m (surveyed)
Variation: 13E (1985)
From city: 1 mile SW of RICHEY, MT
Time zone: UTC -6 (UTC -7 during Standard Time)
Zip code: 59259

Airport Operations

Airport use: Open to the public
Control tower: no
ARTCC: SALT LAKE CITY CENTER
FSS: GREAT FALLS FLIGHT SERVICE STATION
NOTAMs facility: GTF (NOTAM-D service available)
Attendance: UNATNDD
Wind indicator: lighted
Segmented circle: yes

Airport Communications

CTAF: 122.9

Nearby radio navigation aids

NDB name  Hdg/Dist  Freq  Var  ID
CIRCLE043/23.324515ECRR -.-. .-. .-.
GLENDIVE329/31.641010EGDV --. -.. ...-
WOLF POINT134/35.640410EOLF --- .-.. ..-.
SIDNEY253/36.635909ESDY ... -.. -.--

Airport Services

Parking: tiedowns
Airframe service: NONE
Powerplant service: NONE
Bottled oxygen: NONE
Bulk oxygen: NONE

Runway Information

Runway 14/32

Dimensions: 2690 x 75 ft. / 820 x 23 m
Surface: turf/dirt, in fair condition
RY 14/32 CENTER 20 FT OF RY - SOFT GRADED DIRT - PERIMETER IS TURF, ROUGH.
RUNWAY 14  RUNWAY 32
Latitude: 47-37.778832N47-37.390750N
Longitude: 105-04.933067W105-04.618338W
Elevation: 2494.0 ft.2494.0 ft.
Gradient: 0.6%0.6%
Traffic pattern: leftleft
Runway heading: 138 magnetic, 151 true318 magnetic, 331 true
Obstructions: none96 ft. hill, 1837 ft. from runway, 19:1 slope to clear

Airport Ownership and Management from official FAA records

Ownership: Publicly-owned
Owner: MONTANA AERONAUTICS DIVISION
PO BOX 200507
HELENA, MT 59620-0507
Phone 406-444-2506
Manager: TIM CONWAY
BOX 200507
HELENA, MT 59620
Phone 406-444-2506

Airport Operational Statistics

Aircraft based on the field: 2
Single engine airplanes: 2
    
Aircraft operations: avg 33/month *
75% local general aviation
25% transient general aviation
* for 12-month period ending 04 August 2015

Additional Remarks

NO SNOW REMOVAL.

Instrument Procedures

There are no published instrument procedures at 7U8.

Some nearby airports with instrument procedures:

4U6 - Circle Town County Airport (23 nm SW)
PO1 - Poplar Municipal Airport (31 nm N)
KGDV - Dawson Community Airport (31 nm S)
KOLF - L M Clayton Airport (34 nm NW)
KSDY - Sidney-Richland Regional Airport (36 nm E)
 
Loc | Ops | Rwys | IFR | FBO | Links
Com | Nav | Svcs | Stats | Notes

AirNav Hotels Sweepstakes
 
Area around 7U8 (Richey Airport)
 
Road maps at: MapQuest Bing Google
 
Aerial photo
WARNING: Photo may not be current or correct
Aerial photo of 7U8 (Richey Airport)
Taken in August 2007

Do you have a better or more recent aerial photo of Richey Airport that you would like to share? If so, please send us your photo.

 
Sectional chart

 
Airport distance calculator
Flying to Richey Airport? Find the distance to fly.

From to 7U8

Sunrise and sunset
Times for 20-Jun-2018
 Local
(UTC-6)
 Zulu
(UTC)
Morning civil twilight04:2210:22
Sunrise05:0311:03
Sunset21:0103:01
Evening civil twilight21:4103:41

Current date and time
Zulu (UTC)  21-Jun-2018 03:28:07
Local (UTC-6)  20-Jun-2018 21:28:07
 
METAR
KGDV 
33nm S 
210256Z AUTO 27007KT 10SM CLR 19/14 A3009 RMK AO2 SLP178 T01890144 56002
KOLF 
35nm NW 
210253Z AUTO 21005KT 10SM CLR 22/12 A3005 RMK AO2 SLP168 T02220122 56004 TSNO
KSDY 
36nm E 
210256Z AUTO 00000KT 10SM CLR 21/13 A3005 RMK AO2 SLP172 T02060133 58004
TAF
KGDV 
33nm S 
201720Z 2018/2118 VRB06KT P6SM BKN100 FM210500 VRB06KT P6SM BKN200
KOLF 
35nm NW 
201720Z 2018/2118 VRB05KT P6SM BKN090 FM210700 VRB05KT P6SM BKN200
KSDY 
36nm E 
201720Z 2018/2118 VRB06KT P6SM SCT110 FM210500 VRB04KT P6SM BKN100
NOTAMs
Click for the latest NOTAMs
NOTAMs are issued by the DoD/FAA and will open in a separate window not controlled by AirNav.

 

 
 

Would you like to see your business listed on this page?

 If your business provides an interesting product or service to pilots, flight crews, aircraft, or users of the Richey Airport, you should consider listing it here.  To start the listing process, click on the button below
 
Add a business
 

Other Pages about Richey Airport

Update a link
 
Copyright © AirNav, LLC. All rights reserved. Privacy Policy  Contact